sensor_id;sensor_type;location;lat;lon;timestamp;temperature;humidity
43320;DHT22;28914;48.722;9.332;2024-02-14T00:03:46;5.10;74.60
43320;DHT22;28914;48.722;9.332;2024-02-14T00:09:07;5.00;74.70
43320;DHT22;28914;48.722;9.332;2024-02-14T00:14:26;5.00;75.00
43320;DHT22;28914;48.722;9.332;2024-02-14T00:19:45;5.00;75.10
43320;DHT22;28914;48.722;9.332;2024-02-14T00:25:04;5.00;75.50
43320;DHT22;28914;48.722;9.332;2024-02-14T00:30:24;5.00;76.00
43320;DHT22;28914;48.722;9.332;2024-02-14T00:35:43;5.10;76.00
43320;DHT22;28914;48.722;9.332;2024-02-14T00:41:02;5.20;75.80
43320;DHT22;28914;48.722;9.332;2024-02-14T00:46:22;5.20;76.20
43320;DHT22;28914;48.722;9.332;2024-02-14T00:51:41;5.20;76.20
43320;DHT22;28914;48.722;9.332;2024-02-14T00:57:01;5.30;76.20
43320;DHT22;28914;48.722;9.332;2024-02-14T01:02:20;5.40;76.20
43320;DHT22;28914;48.722;9.332;2024-02-14T01:07:40;5.50;76.80
43320;DHT22;28914;48.722;9.332;2024-02-14T01:12:59;5.50;77.00
43320;DHT22;28914;48.722;9.332;2024-02-14T01:18:18;5.60;77.00
43320;DHT22;28914;48.722;9.332;2024-02-14T01:23:38;5.70;76.70
43320;DHT22;28914;48.722;9.332;2024-02-14T01:28:57;5.80;76.80
43320;DHT22;28914;48.722;9.332;2024-02-14T01:34:16;6.00;77.20
43320;DHT22;28914;48.722;9.332;2024-02-14T01:39:35;6.10;77.10
43320;DHT22;28914;48.722;9.332;2024-02-14T01:44:55;6.20;77.00
43320;DHT22;28914;48.722;9.332;2024-02-14T01:50:14;6.30;77.30
43320;DHT22;28914;48.722;9.332;2024-02-14T01:55:33;6.40;77.60
43320;DHT22;28914;48.722;9.332;2024-02-14T02:00:53;6.50;77.60
43320;DHT22;28914;48.722;9.332;2024-02-14T02:06:17;6.50;77.60
43320;DHT22;28914;48.722;9.332;2024-02-14T02:11:49;6.60;77.40
43320;DHT22;28914;48.722;9.332;2024-02-14T02:17:09;6.60;77.80
43320;DHT22;28914;48.722;9.332;2024-02-14T02:22:30;6.70;77.50
43320;DHT22;28914;48.722;9.332;2024-02-14T02:27:51;6.80;77.70
43320;DHT22;28914;48.722;9.332;2024-02-14T02:33:10;6.80;77.60
43320;DHT22;28914;48.722;9.332;2024-02-14T02:38:29;6.90;77.70
43320;DHT22;28914;48.722;9.332;2024-02-14T02:43:48;7.00;77.60
43320;DHT22;28914;48.722;9.332;2024-02-14T02:49:09;7.00;77.60
43320;DHT22;28914;48.722;9.332;2024-02-14T02:54:28;7.00;77.70
43320;DHT22;28914;48.722;9.332;2024-02-14T02:59:47;7.00;77.70
43320;DHT22;28914;48.722;9.332;2024-02-14T03:05:07;7.10;77.70
43320;DHT22;28914;48.722;9.332;2024-02-14T03:10:27;7.20;77.60
43320;DHT22;28914;48.722;9.332;2024-02-14T03:15:48;7.20;77.60
43320;DHT22;28914;48.722;9.332;2024-02-14T03:21:08;7.20;77.60
43320;DHT22;28914;48.722;9.332;2024-02-14T03:26:27;7.20;77.50
43320;DHT22;28914;48.722;9.332;2024-02-14T03:31:47;7.20;77.50
43320;DHT22;28914;48.722;9.332;2024-02-14T03:37:06;7.20;77.40
43320;DHT22;28914;48.722;9.332;2024-02-14T03:42:25;7.20;77.30
43320;DHT22;28914;48.722;9.332;2024-02-14T03:47:45;7.20;77.80
43320;DHT22;28914;48.722;9.332;2024-02-14T03:53:04;7.20;77.40
43320;DHT22;28914;48.722;9.332;2024-02-14T03:58:23;7.20;77.60
43320;DHT22;28914;48.722;9.332;2024-02-14T04:03:43;7.20;77.30
43320;DHT22;28914;48.722;9.332;2024-02-14T04:09:02;7.10;77.20
43320;DHT22;28914;48.722;9.332;2024-02-14T04:14:21;7.10;77.50
43320;DHT22;28914;48.722;9.332;2024-02-14T04:19:40;7.10;77.70
43320;DHT22;28914;48.722;9.332;2024-02-14T04:24:59;7.10;78.00
43320;DHT22;28914;48.722;9.332;2024-02-14T04:30:19;7.20;78.80
43320;DHT22;28914;48.722;9.332;2024-02-14T04:35:38;7.20;78.70
43320;DHT22;28914;48.722;9.332;2024-02-14T04:40:57;7.10;78.60
43320;DHT22;28914;48.722;9.332;2024-02-14T04:46:17;7.20;78.60
43320;DHT22;28914;48.722;9.332;2024-02-14T04:51:36;7.20;79.00
43320;DHT22;28914;48.722;9.332;2024-02-14T04:56:55;7.20;78.40
43320;DHT22;28914;48.722;9.332;2024-02-14T05:02:14;7.10;78.30
43320;DHT22;28914;48.722;9.332;2024-02-14T05:07:33;7.20;78.40
43320;DHT22;28914;48.722;9.332;2024-02-14T05:12:53;7.20;78.50
43320;DHT22;28914;48.722;9.332;2024-02-14T05:18:14;7.20;78.60
43320;DHT22;28914;48.722;9.332;2024-02-14T05:23:36;7.30;78.70
43320;DHT22;28914;48.722;9.332;2024-02-14T05:28:55;7.30;78.60
43320;DHT22;28914;48.722;9.332;2024-02-14T05:34:15;7.40;79.10
43320;DHT22;28914;48.722;9.332;2024-02-14T05:39:34;7.40;78.70
43320;DHT22;28914;48.722;9.332;2024-02-14T05:44:53;7.40;78.70
43320;DHT22;28914;48.722;9.332;2024-02-14T05:50:13;7.50;79.10
43320;DHT22;28914;48.722;9.332;2024-02-14T05:55:32;7.50;78.80
43320;DHT22;28914;48.722;9.332;2024-02-14T06:00:52;7.50;78.80
43320;DHT22;28914;48.722;9.332;2024-02-14T06:06:11;7.50;78.80
43320;DHT22;28914;48.722;9.332;2024-02-14T06:11:30;7.60;79.10
43320;DHT22;28914;48.722;9.332;2024-02-14T06:16:49;7.70;79.10
43320;DHT22;28914;48.722;9.332;2024-02-14T06:22:08;7.70;79.00
43320;DHT22;28914;48.722;9.332;2024-02-14T06:27:29;7.70;79.00
43320;DHT22;28914;48.722;9.332;2024-02-14T06:32:48;7.70;78.90
43320;DHT22;28914;48.722;9.332;2024-02-14T06:38:08;7.70;78.80
43320;DHT22;28914;48.722;9.332;2024-02-14T06:43:27;7.80;79.20
43320;DHT22;28914;48.722;9.332;2024-02-14T06:48:48;7.70;79.20
43320;DHT22;28914;48.722;9.332;2024-02-14T06:54:07;7.70;79.00
43320;DHT22;28914;48.722;9.332;2024-02-14T06:59:26;7.80;79.10
43320;DHT22;28914;48.722;9.332;2024-02-14T07:04:46;7.90;79.10
43320;DHT22;28914;48.722;9.332;2024-02-14T07:10:07;7.90;79.10
43320;DHT22;28914;48.722;9.332;2024-02-14T07:15:26;8.00;78.70
43320;DHT22;28914;48.722;9.332;2024-02-14T07:20:47;8.10;79.00
43320;DHT22;28914;48.722;9.332;2024-02-14T07:26:06;8.20;78.70
43320;DHT22;28914;48.722;9.332;2024-02-14T07:31:28;8.20;78.60
43320;DHT22;28914;48.722;9.332;2024-02-14T07:36:49;8.30;78.70
43320;DHT22;28914;48.722;9.332;2024-02-14T07:42:08;8.40;78.60
43320;DHT22;28914;48.722;9.332;2024-02-14T07:47:27;8.50;78.50
43320;DHT22;28914;48.722;9.332;2024-02-14T07:52:47;8.70;78.60
43320;DHT22;28914;48.722;9.332;2024-02-14T07:58:06;8.80;78.50
43320;DHT22;28914;48.722;9.332;2024-02-14T08:03:25;9.00;78.20
43320;DHT22;28914;48.722;9.332;2024-02-14T08:08:45;9.10;77.80
43320;DHT22;28914;48.722;9.332;2024-02-14T08:14:04;9.20;77.80
43320;DHT22;28914;48.722;9.332;2024-02-14T08:19:24;9.40;77.60
43320;DHT22;28914;48.722;9.332;2024-02-14T08:24:43;9.60;77.30
43320;DHT22;28914;48.722;9.332;2024-02-14T08:30:03;9.80;76.70
43320;DHT22;28914;48.722;9.332;2024-02-14T08:35:25;9.90;76.10
43320;DHT22;28914;48.722;9.332;2024-02-14T08:40:44;10.00;75.90
43320;DHT22;28914;48.722;9.332;2024-02-14T08:46:03;10.20;75.70
43320;DHT22;28914;48.722;9.332;2024-02-14T08:51:28;10.30;74.70
43320;DHT22;28914;48.722;9.332;2024-02-14T08:56:48;10.40;74.50
43320;DHT22;28914;48.722;9.332;2024-02-14T09:02:07;10.50;74.40
43320;DHT22;28914;48.722;9.332;2024-02-14T09:07:26;10.70;74.60
43320;DHT22;28914;48.722;9.332;2024-02-14T09:12:46;11.00;74.60
43320;DHT22;28914;48.722;9.332;2024-02-14T09:18:05;11.30;73.00
43320;DHT22;28914;48.722;9.332;2024-02-14T09:23:24;11.50;73.20
43320;DHT22;28914;48.722;9.332;2024-02-14T09:28:43;11.60;72.30
43320;DHT22;28914;48.722;9.332;2024-02-14T09:34:03;11.70;71.90
43320;DHT22;28914;48.722;9.332;2024-02-14T09:39:23;11.70;72.10
43320;DHT22;28914;48.722;9.332;2024-02-14T09:44:43;11.80;72.10
43320;DHT22;28914;48.722;9.332;2024-02-14T09:50:03;11.80;72.20
43320;DHT22;28914;48.722;9.332;2024-02-14T09:55:25;12.00;72.30
43320;DHT22;28914;48.722;9.332;2024-02-14T10:00:45;12.30;71.80
43320;DHT22;28914;48.722;9.332;2024-02-14T10:06:04;12.60;72.30
43320;DHT22;28914;48.722;9.332;2024-02-14T10:11:23;13.20;72.20
43320;DHT22;28914;48.722;9.332;2024-02-14T10:16:46;14.20;71.50
43320;DHT22;28914;48.722;9.332;2024-02-14T10:22:05;16.00;70.50
43320;DHT22;28914;48.722;9.332;2024-02-14T10:27:26;17.70;69.10
43320;DHT22;28914;48.722;9.332;2024-02-14T10:32:46;19.40;65.90
43320;DHT22;28914;48.722;9.332;2024-02-14T10:38:08;21.40;63.20
43320;DHT22;28914;48.722;9.332;2024-02-14T10:43:28;23.00;57.80
43320;DHT22;28914;48.722;9.332;2024-02-14T10:48:53;23.50;55.10
43320;DHT22;28914;48.722;9.332;2024-02-14T10:54:14;24.30;55.10
43320;DHT22;28914;48.722;9.332;2024-02-14T10:59:41;25.60;51.70
43320;DHT22;28914;48.722;9.332;2024-02-14T11:05:02;26.90;50.90
43320;DHT22;28914;48.722;9.332;2024-02-14T11:10:22;28.10;50.40
43320;DHT22;28914;48.722;9.332;2024-02-14T11:15:44;28.90;47.70
43320;DHT22;28914;48.722;9.332;2024-02-14T11:21:04;28.70;46.10
43320;DHT22;28914;48.722;9.332;2024-02-14T11:26:23;28.10;46.20
43320;DHT22;28914;48.722;9.332;2024-02-14T11:31:46;27.20;45.80
43320;DHT22;28914;48.722;9.332;2024-02-14T11:37:06;26.10;46.90
43320;DHT22;28914;48.722;9.332;2024-02-14T11:42:26;25.00;47.40
43320;DHT22;28914;48.722;9.332;2024-02-14T11:47:46;23.80;48.10
43320;DHT22;28914;48.722;9.332;2024-02-14T11:53:05;22.70;48.90
43320;DHT22;28914;48.722;9.332;2024-02-14T11:58:27;21.80;50.70
43320;DHT22;28914;48.722;9.332;2024-02-14T12:03:46;21.00;51.70
43320;DHT22;28914;48.722;9.332;2024-02-14T12:09:06;20.30;52.60
43320;DHT22;28914;48.722;9.332;2024-02-14T12:14:27;19.80;53.50
43320;DHT22;28914;48.722;9.332;2024-02-14T12:19:47;19.40;54.20
43320;DHT22;28914;48.722;9.332;2024-02-14T12:25:10;19.10;55.20
43320;DHT22;28914;48.722;9.332;2024-02-14T12:30:47;19.00;55.90
43320;DHT22;28914;48.722;9.332;2024-02-14T12:36:08;18.90;56.80
43320;DHT22;28914;48.722;9.332;2024-02-14T12:41:32;19.10;57.60
43320;DHT22;28914;48.722;9.332;2024-02-14T12:46:54;19.30;57.70
43320;DHT22;28914;48.722;9.332;2024-02-14T12:52:13;19.40;57.00
43320;DHT22;28914;48.722;9.332;2024-02-14T12:57:33;19.40;56.90
43320;DHT22;28914;48.722;9.332;2024-02-14T13:02:52;19.30;56.90
43320;DHT22;28914;48.722;9.332;2024-02-14T13:08:12;19.20;57.10
43320;DHT22;28914;48.722;9.332;2024-02-14T13:13:32;19.20;57.10
43320;DHT22;28914;48.722;9.332;2024-02-14T13:18:51;19.10;57.00
43320;DHT22;28914;48.722;9.332;2024-02-14T13:24:12;19.10;57.30
43320;DHT22;28914;48.722;9.332;2024-02-14T13:29:34;18.90;57.30
43320;DHT22;28914;48.722;9.332;2024-02-14T13:34:54;18.80;57.70
43320;DHT22;28914;48.722;9.332;2024-02-14T13:40:13;18.80;58.00
43320;DHT22;28914;48.722;9.332;2024-02-14T13:45:43;18.80;58.00
43320;DHT22;28914;48.722;9.332;2024-02-14T13:51:02;18.80;58.20
43320;DHT22;28914;48.722;9.332;2024-02-14T13:56:22;18.80;58.20
43320;DHT22;28914;48.722;9.332;2024-02-14T14:01:42;18.80;58.20
43320;DHT22;28914;48.722;9.332;2024-02-14T14:07:01;18.80;58.30
43320;DHT22;28914;48.722;9.332;2024-02-14T14:12:23;18.80;58.60
43320;DHT22;28914;48.722;9.332;2024-02-14T14:17:42;18.80;58.70
43320;DHT22;28914;48.722;9.332;2024-02-14T14:23:01;18.80;58.90
43320;DHT22;28914;48.722;9.332;2024-02-14T14:28:22;18.80;59.30
43320;DHT22;28914;48.722;9.332;2024-02-14T14:33:43;18.80;59.00
43320;DHT22;28914;48.722;9.332;2024-02-14T14:39:03;18.70;59.00
43320;DHT22;28914;48.722;9.332;2024-02-14T14:44:22;18.60;59.10
43320;DHT22;28914;48.722;9.332;2024-02-14T14:49:41;18.50;59.30
43320;DHT22;28914;48.722;9.332;2024-02-14T14:55:01;18.50;60.10
43320;DHT22;28914;48.722;9.332;2024-02-14T15:00:20;18.50;59.50
43320;DHT22;28914;48.722;9.332;2024-02-14T15:05:40;18.50;59.60
43320;DHT22;28914;48.722;9.332;2024-02-14T15:11:01;18.50;59.70
43320;DHT22;28914;48.722;9.332;2024-02-14T15:16:20;18.40;59.80
43320;DHT22;28914;48.722;9.332;2024-02-14T15:21:40;18.40;59.80
43320;DHT22;28914;48.722;9.332;2024-02-14T15:26:59;18.40;60.00
43320;DHT22;28914;48.722;9.332;2024-02-14T15:32:19;18.30;60.10
43320;DHT22;28914;48.722;9.332;2024-02-14T15:37:57;18.20;60.20
43320;DHT22;28914;48.722;9.332;2024-02-14T15:43:16;18.20;60.40
43320;DHT22;28914;48.722;9.332;2024-02-14T15:48:35;18.10;60.50
43320;DHT22;28914;48.722;9.332;2024-02-14T15:53:55;18.10;60.70
43320;DHT22;28914;48.722;9.332;2024-02-14T15:59:14;18.00;60.70
43320;DHT22;28914;48.722;9.332;2024-02-14T16:04:34;18.00;61.00
43320;DHT22;28914;48.722;9.332;2024-02-14T16:09:53;17.90;61.10
43320;DHT22;28914;48.722;9.332;2024-02-14T16:15:16;17.80;61.20
43320;DHT22;28914;48.722;9.332;2024-02-14T16:20:39;17.80;61.40
43320;DHT22;28914;48.722;9.332;2024-02-14T16:25:58;17.70;61.60
43320;DHT22;28914;48.722;9.332;2024-02-14T16:31:18;17.60;61.70
43320;DHT22;28914;48.722;9.332;2024-02-14T16:36:37;17.60;61.90
43320;DHT22;28914;48.722;9.332;2024-02-14T16:41:56;17.50;61.90
43320;DHT22;28914;48.722;9.332;2024-02-14T16:47:15;17.40;62.10
43320;DHT22;28914;48.722;9.332;2024-02-14T16:52:34;17.40;62.80
43320;DHT22;28914;48.722;9.332;2024-02-14T16:57:54;17.30;63.20
43320;DHT22;28914;48.722;9.332;2024-02-14T17:03:15;17.20;63.30
43320;DHT22;28914;48.722;9.332;2024-02-14T17:08:34;17.10;63.70
43320;DHT22;28914;48.722;9.332;2024-02-14T17:13:53;16.90;64.00
43320;DHT22;28914;48.722;9.332;2024-02-14T17:19:13;16.80;64.30
43320;DHT22;28914;48.722;9.332;2024-02-14T17:24:32;16.70;64.70
43320;DHT22;28914;48.722;9.332;2024-02-14T17:29:51;16.60;65.10
43320;DHT22;28914;48.722;9.332;2024-02-14T17:35:11;16.50;65.30
43320;DHT22;28914;48.722;9.332;2024-02-14T17:40:30;16.40;66.30
43320;DHT22;28914;48.722;9.332;2024-02-14T17:45:49;16.30;65.80
43320;DHT22;28914;48.722;9.332;2024-02-14T17:51:08;16.20;66.20
43320;DHT22;28914;48.722;9.332;2024-02-14T17:56:29;16.20;66.50
43320;DHT22;28914;48.722;9.332;2024-02-14T18:01:48;16.10;66.70
43320;DHT22;28914;48.722;9.332;2024-02-14T18:07:08;16.00;67.30
43320;DHT22;28914;48.722;9.332;2024-02-14T18:12:27;16.00;67.30
43320;DHT22;28914;48.722;9.332;2024-02-14T18:17:46;15.90;68.40
43320;DHT22;28914;48.722;9.332;2024-02-14T18:23:07;15.80;67.80
43320;DHT22;28914;48.722;9.332;2024-02-14T18:28:26;15.80;69.00
43320;DHT22;28914;48.722;9.332;2024-02-14T18:33:46;15.70;68.60
43320;DHT22;28914;48.722;9.332;2024-02-14T18:39:05;15.60;69.60
43320;DHT22;28914;48.722;9.332;2024-02-14T18:44:24;15.60;69.10
43320;DHT22;28914;48.722;9.332;2024-02-14T18:49:44;15.50;69.30
43320;DHT22;28914;48.722;9.332;2024-02-14T18:55:04;15.40;69.50
43320;DHT22;28914;48.722;9.332;2024-02-14T19:00:24;15.40;69.80
43320;DHT22;28914;48.722;9.332;2024-02-14T19:05:44;15.30;69.90
43320;DHT22;28914;48.722;9.332;2024-02-14T19:11:03;15.30;70.20
43320;DHT22;28914;48.722;9.332;2024-02-14T19:16:23;15.20;70.30
43320;DHT22;28914;48.722;9.332;2024-02-14T19:21:43;15.20;70.70
43320;DHT22;28914;48.722;9.332;2024-02-14T19:27:02;15.10;70.80
43320;DHT22;28914;48.722;9.332;2024-02-14T19:32:21;15.00;71.00
43320;DHT22;28914;48.722;9.332;2024-02-14T19:37:40;15.00;71.00
43320;DHT22;28914;48.722;9.332;2024-02-14T19:43:00;14.90;71.20
43320;DHT22;28914;48.722;9.332;2024-02-14T19:48:18;14.80;71.20
43320;DHT22;28914;48.722;9.332;2024-02-14T19:53:37;14.80;71.30
43320;DHT22;28914;48.722;9.332;2024-02-14T19:58:56;14.70;71.30
43320;DHT22;28914;48.722;9.332;2024-02-14T20:04:16;14.60;71.50
43320;DHT22;28914;48.722;9.332;2024-02-14T20:09:35;14.50;71.60
43320;DHT22;28914;48.722;9.332;2024-02-14T20:14:55;14.40;71.60
43320;DHT22;28914;48.722;9.332;2024-02-14T20:20:15;14.30;71.70
43320;DHT22;28914;48.722;9.332;2024-02-14T20:25:34;14.10;71.90
43320;DHT22;28914;48.722;9.332;2024-02-14T20:30:54;14.00;72.40
43320;DHT22;28914;48.722;9.332;2024-02-14T20:36:13;13.90;72.30
43320;DHT22;28914;48.722;9.332;2024-02-14T20:41:32;13.80;72.40
43320;DHT22;28914;48.722;9.332;2024-02-14T20:46:51;13.70;72.60
43320;DHT22;28914;48.722;9.332;2024-02-14T20:52:13;13.60;72.80
43320;DHT22;28914;48.722;9.332;2024-02-14T20:57:33;13.50;72.80
43320;DHT22;28914;48.722;9.332;2024-02-14T21:02:52;13.50;73.10
43320;DHT22;28914;48.722;9.332;2024-02-14T21:08:11;13.40;73.30
43320;DHT22;28914;48.722;9.332;2024-02-14T21:13:30;13.40;73.60
43320;DHT22;28914;48.722;9.332;2024-02-14T21:18:51;13.30;73.70
43320;DHT22;28914;48.722;9.332;2024-02-14T21:24:10;13.30;74.00
43320;DHT22;28914;48.722;9.332;2024-02-14T21:29:29;13.20;74.20
43320;DHT22;28914;48.722;9.332;2024-02-14T21:34:48;13.20;74.30
43320;DHT22;28914;48.722;9.332;2024-02-14T21:40:08;13.20;74.50
43320;DHT22;28914;48.722;9.332;2024-02-14T21:45:27;13.20;75.00
43320;DHT22;28914;48.722;9.332;2024-02-14T21:50:47;13.20;75.00
43320;DHT22;28914;48.722;9.332;2024-02-14T21:56:06;13.20;75.10
43320;DHT22;28914;48.722;9.332;2024-02-14T22:01:25;13.20;74.70
43320;DHT22;28914;48.722;9.332;2024-02-14T22:06:45;13.20;75.30
43320;DHT22;28914;48.722;9.332;2024-02-14T22:12:05;13.20;75.50
43320;DHT22;28914;48.722;9.332;2024-02-14T22:17:26;13.30;75.60
43320;DHT22;28914;48.722;9.332;2024-02-14T22:22:45;13.30;75.60
43320;DHT22;28914;48.722;9.332;2024-02-14T22:28:04;13.30;75.90
43320;DHT22;28914;48.722;9.332;2024-02-14T22:33:24;13.30;75.90
43320;DHT22;28914;48.722;9.332;2024-02-14T22:38:44;13.30;76.00
43320;DHT22;28914;48.722;9.332;2024-02-14T22:44:03;13.30;75.90
43320;DHT22;28914;48.722;9.332;2024-02-14T22:49:24;13.40;76.10
43320;DHT22;28914;48.722;9.332;2024-02-14T22:54:43;13.40;76.30
43320;DHT22;28914;48.722;9.332;2024-02-14T23:00:02;13.40;76.20
43320;DHT22;28914;48.722;9.332;2024-02-14T23:05:24;13.50;76.40
43320;DHT22;28914;48.722;9.332;2024-02-14T23:10:44;13.40;76.80
43320;DHT22;28914;48.722;9.332;2024-02-14T23:16:03;13.40;76.60
43320;DHT22;28914;48.722;9.332;2024-02-14T23:21:24;13.40;76.60
43320;DHT22;28914;48.722;9.332;2024-02-14T23:26:43;13.40;76.70
43320;DHT22;28914;48.722;9.332;2024-02-14T23:32:02;13.30;76.50
43320;DHT22;28914;48.722;9.332;2024-02-14T23:37:23;13.40;77.40
43320;DHT22;28914;48.722;9.332;2024-02-14T23:42:42;13.30;76.60
43320;DHT22;28914;48.722;9.332;2024-02-14T23:48:02;13.30;76.90
43320;DHT22;28914;48.722;9.332;2024-02-14T23:53:21;13.30;77.10
43320;DHT22;28914;48.722;9.332;2024-02-14T23:58:41;13.30;77.20
